This is the latest recevied weather packets stored in our database for station/object N2XGL-1. If no packets are shown the sender has not sent any weather packets the latest 1 day(s).
| Time | Temp. | Humidity | Pressure | Rain* | Wind** | Luminosity | Snow |
|---|---|---|---|---|---|---|---|
| 1777963353 | 8.33° C | 89% | 1005.2 hPa | 0 mm | 3.58 m/s, 0° | - | - |
| 1777962758 | 8.33° C | 91% | 1004.8 hPa | 0 mm | 0 m/s | - | - |
| 1777962310 | 8.33° C | 91% | 1004.6 hPa | 0 mm | 0 m/s | - | - |
| 1777962239 | 8.33° C | 91% | 1004.6 hPa | 0 mm | 0 m/s | - | - |
| 1777961078 | 7.78° C | 90% | 1004.6 hPa | 0 mm | 0 m/s | - | - |
| 1777960578 | 7.78° C | 90% | 1004.6 hPa | 0 mm | 0.45 m/s, 202° | - | - |
| 1777959551 | 7.78° C | 90% | 1004.3 hPa | 0 mm | 0 m/s | - | - |
| 1777958972 | 7.78° C | 90% | 1004.2 hPa | 0 mm | 0 m/s | - | - |
| 1777958433 | 8.33° C | 90% | 1004.1 hPa | 0 mm | 0 m/s | - | - |
| 1777957863 | 8.33° C | 89% | 1004 hPa | 0 mm | 0 m/s | - | - |
| 1777957303 | 8.33° C | 89% | 1004 hPa | 0 mm | 0.45 m/s, 180° | - | - |
| 1777956764 | 8.33° C | 89% | 1004 hPa | 0 mm | 0.89 m/s, 158° | - | - |
| 1777955679 | 8.33° C | 89% | 1004 hPa | 0 mm | 0.89 m/s, 180° | - | - |
| 1777955158 | 8.33° C | 88% | 1004 hPa | 0 mm | 1.34 m/s, 180° | - | - |
| 1777954702 | 8.89° C | 88% | 1004.1 hPa | 0.25 mm | 0.89 m/s, 180° | - | - |
| 1777954653 | 8.89° C | 88% | 1004.1 hPa | 0.25 mm | 0.89 m/s, 180° | - | - |
| 1777953533 | 9.44° C | 87% | 1003.8 hPa | 0.76 mm | 0.89 m/s, 202° | - | - |
| 1777953048 | 9.44° C | 87% | 1003.8 hPa | 0.76 mm | 1.34 m/s, 180° | - | - |
| 1777952564 | 9.44° C | 87% | 1003.7 hPa | 1.02 mm | 0.89 m/s, 225° | - | - |
| 1777951988 | 10° C | 86% | 1003.8 hPa | 1.27 mm | 0.89 m/s, 225° | - | - |
| 1777951394 | 10° C | 86% | 1003.6 hPa | 1.27 mm | 0.89 m/s, 180° | - | - |
| 1777950893 | 10° C | 84% | 1003.3 hPa | 0.76 mm | 1.79 m/s, 180° | - | - |
| 1777950293 | 10.56° C | 83% | 1003.1 hPa | 0.51 mm | 1.34 m/s, 202° | - | - |
| 1777949761 | 10.56° C | 82% | 1003.1 hPa | 0.51 mm | 1.34 m/s, 225° | - | - |
| 1777949208 | 10.56° C | 80% | 1002.9 hPa | 0.25 mm | 2.24 m/s, 248° | - | - |
* Rain latest hour (hover to see other rain measurements)
** Current wind speed in m/s (hover to see current wind gust speed)